createdAt,value
2019-05-01T00:02:24.675Z,21.27
2019-05-01T00:05:05.232Z,18.33
2019-05-01T00:07:35.551Z,18.60
2019-05-01T00:10:06.183Z,20.33
2019-05-01T00:12:35.091Z,22.00
2019-05-01T00:15:04.366Z,19.70
2019-05-01T00:17:33.532Z,19.53
2019-05-01T00:20:02.631Z,21.40
2019-05-01T00:22:32.034Z,20.87
2019-05-01T00:25:01.107Z,20.93
2019-05-01T00:27:30.118Z,20.90
2019-05-01T00:29:59.150Z,24.47
2019-05-01T00:32:28.195Z,22.03
2019-05-01T00:34:57.027Z,19.77
2019-05-01T00:37:25.899Z,21.77
2019-05-01T00:39:54.747Z,22.30
2019-05-01T00:42:23.786Z,24.13
2019-05-01T00:44:52.748Z,20.57
2019-05-01T00:47:22.087Z,22.27
2019-05-01T00:49:51.392Z,21.00
2019-05-01T00:52:20.375Z,22.23
2019-05-01T00:54:51.406Z,22.67
2019-05-01T00:57:36.472Z,21.83
2019-05-01T01:00:23.909Z,23.17
2019-05-01T01:02:54.699Z,22.50
2019-05-01T01:05:23.778Z,22.73
2019-05-01T01:07:52.787Z,24.47
2019-05-01T01:10:21.864Z,23.07
2019-05-01T01:12:50.807Z,23.97
2019-05-01T01:15:19.863Z,23.37
2019-05-01T01:17:48.788Z,22.67
2019-05-01T01:20:18.072Z,23.23
2019-05-01T01:22:47.091Z,23.37
2019-05-01T01:25:16.403Z,24.77
2019-05-01T01:27:45.471Z,25.47
2019-05-01T01:30:14.764Z,21.67
2019-05-01T01:32:44.150Z,24.33
2019-05-01T01:35:13.310Z,25.00
2019-05-01T01:37:42.290Z,25.33
2019-05-01T01:40:11.573Z,23.20
2019-05-01T01:42:41.507Z,25.87
2019-05-01T01:45:32.839Z,24.00
2019-05-01T01:48:16.240Z,22.07
2019-05-01T01:50:45.838Z,21.93
2019-05-01T01:53:18.036Z,25.87
2019-05-01T01:55:48.159Z,23.13
2019-05-01T01:58:17.972Z,25.03
2019-05-01T02:01:12.419Z,22.77
2019-05-01T02:03:44.579Z,23.97
2019-05-01T02:06:13.860Z,24.53
2019-05-01T02:08:43.661Z,23.77
2019-05-01T02:11:14.087Z,23.33
2019-05-01T02:13:43.228Z,24.40
2019-05-01T02:16:12.562Z,24.77
2019-05-01T02:18:41.820Z,24.95
2019-05-01T02:21:10.882Z,23.83
2019-05-01T02:23:40.336Z,24.32
2019-05-01T02:26:11.132Z,23.70
2019-05-01T02:28:49.691Z,22.77
2019-05-01T02:31:31.407Z,25.75
2019-05-01T02:34:01.885Z,25.85
2019-05-01T02:36:31.654Z,21.77
2019-05-01T02:39:01.602Z,21.00
2019-05-01T02:41:35.383Z,23.85
2019-05-01T02:44:28.436Z,22.27
2019-05-01T02:47:00.697Z,22.07
2019-05-01T02:49:38.231Z,22.02
2019-05-01T02:52:09.895Z,22.77
2019-05-01T02:54:40.182Z,20.85
2019-05-01T02:57:14.665Z,22.27
2019-05-01T02:59:46.632Z,22.30
2019-05-01T03:02:17.348Z,21.00
2019-05-01T03:04:46.852Z,21.65
2019-05-01T03:07:16.951Z,20.20
2019-05-01T03:09:46.597Z,22.02
2019-05-01T03:12:18.257Z,23.07
2019-05-01T03:14:49.751Z,18.27
2019-05-01T03:17:37.142Z,20.27
2019-05-01T03:20:28.523Z,20.95
2019-05-01T03:23:15.712Z,20.23
2019-05-01T03:25:45.164Z,20.80
2019-05-01T03:28:14.262Z,23.35
2019-05-01T03:30:43.337Z,22.23
2019-05-01T03:33:12.661Z,23.80
2019-05-01T03:35:42.240Z,19.87
2019-05-01T03:38:11.907Z,30.80
2019-05-01T03:40:41.643Z,20.13
2019-05-01T03:43:10.781Z,19.52
2019-05-01T03:45:40.662Z,19.57
2019-05-01T03:48:09.699Z,19.07
2019-05-01T03:50:39.164Z,19.90
2019-05-01T03:53:08.740Z,18.87
2019-05-01T03:55:38.183Z,19.20
2019-05-01T03:58:07.245Z,22.55
2019-05-01T04:00:58.829Z,31.27
2019-05-01T04:03:31.131Z,19.35
2019-05-01T04:06:00.503Z,20.57
2019-05-01T04:08:29.557Z,21.90
2019-05-01T04:10:59.156Z,22.40
2019-05-01T04:13:28.464Z,25.97
2019-05-01T04:15:57.561Z,73.63
2019-05-01T04:18:27.762Z,51.02
2019-05-01T04:20:58.069Z,32.90
2019-05-01T04:23:28.000Z,41.35
2019-05-01T04:25:56.956Z,40.17
2019-05-01T04:28:36.516Z,54.03
2019-05-01T04:31:13.171Z,68.83
2019-05-01T04:33:43.580Z,34.85
2019-05-01T04:36:19.061Z,37.33
2019-05-01T04:38:48.322Z,32.88
2019-05-01T04:41:17.324Z,46.20
2019-05-01T04:43:46.415Z,61.65
2019-05-01T04:46:15.857Z,47.78
2019-05-01T04:48:45.307Z,39.27
2019-05-01T04:51:15.424Z,46.80
2019-05-01T04:53:45.187Z,37.23
2019-05-01T04:56:15.005Z,39.13
2019-05-01T04:58:44.497Z,37.35
2019-05-01T05:01:13.767Z,35.77
2019-05-01T05:03:44.768Z,29.30
2019-05-01T05:06:13.803Z,43.30
2019-05-01T05:08:42.884Z,28.17
2019-05-01T05:11:17.232Z,44.43
2019-05-01T05:14:05.556Z,42.75
2019-05-01T05:17:02.603Z,31.93
2019-05-01T05:19:31.938Z,37.55
2019-05-01T05:22:01.307Z,30.27
2019-05-01T05:24:30.375Z,34.05
2019-05-01T05:27:00.774Z,38.17
2019-05-01T05:29:31.743Z,33.30
2019-05-01T05:32:02.717Z,39.37
2019-05-01T05:34:33.427Z,30.80
2019-05-01T05:37:13.228Z,43.50
2019-05-01T05:39:46.883Z,30.80
2019-05-01T05:42:15.977Z,31.10
2019-05-01T05:44:46.815Z,37.47
2019-05-01T05:47:15.804Z,27.87
2019-05-01T05:49:45.671Z,55.48
2019-05-01T05:52:25.193Z,44.70
2019-05-01T05:55:10.034Z,35.23
2019-05-01T05:57:59.779Z,43.98
2019-05-01T06:00:54.607Z,30.33
2019-05-01T06:03:43.979Z,51.67
2019-05-01T06:06:27.424Z,37.23
2019-05-01T06:08:59.724Z,50.03
2019-05-01T06:11:49.818Z,40.63
2019-05-01T06:14:39.581Z,31.52
2019-05-01T06:17:28.673Z,43.17
2019-05-01T06:20:25.875Z,53.98
2019-05-01T06:23:20.745Z,38.10
2019-05-01T06:25:54.208Z,37.53
2019-05-01T06:28:24.692Z,40.90
2019-05-01T06:30:57.103Z,48.53
2019-05-01T06:33:26.072Z,28.02
2019-05-01T06:35:55.077Z,40.17
2019-05-01T06:38:24.291Z,39.95
2019-05-01T06:40:58.317Z,51.07
2019-05-01T06:44:02.130Z,32.23
2019-05-01T06:47:03.167Z,33.63
2019-05-01T06:49:55.847Z,33.50
2019-05-01T06:52:29.434Z,32.77
2019-05-01T06:54:58.263Z,28.50
2019-05-01T06:57:28.335Z,29.70
2019-05-01T07:00:03.207Z,48.35
2019-05-01T07:02:34.902Z,30.80
2019-05-01T07:05:03.230Z,38.28
2019-05-01T07:07:33.223Z,32.15
2019-05-01T07:10:04.307Z,35.75
2019-05-01T07:12:34.526Z,37.90
2019-05-01T07:15:04.331Z,33.47
2019-05-01T07:17:33.665Z,33.77
2019-05-01T07:20:28.856Z,34.65
2019-05-01T07:22:57.812Z,32.70
2019-05-01T07:25:26.765Z,40.67
2019-05-01T07:27:58.507Z,38.55
2019-05-01T07:30:41.691Z,35.87
2019-05-01T07:33:11.855Z,43.68
2019-05-01T07:35:42.912Z,38.90
2019-05-01T07:38:12.182Z,43.70
2019-05-01T07:40:41.595Z,40.50
2019-05-01T07:43:19.115Z,37.55
2019-05-01T07:46:13.837Z,39.33
2019-05-01T07:48:44.598Z,39.83
2019-05-01T07:51:13.771Z,39.67
2019-05-01T07:53:44.017Z,38.88
2019-05-01T07:56:13.014Z,46.30
2019-05-01T07:58:42.251Z,42.10
2019-05-01T08:01:20.165Z,37.13
2019-05-01T08:03:49.343Z,40.47
2019-05-01T08:06:21.825Z,38.73
2019-05-01T08:08:48.908Z,38.13
2019-05-01T08:11:17.869Z,43.40
2019-05-01T08:13:46.779Z,48.43
2019-05-01T08:16:15.767Z,47.37
2019-05-01T08:18:52.850Z,51.40
2019-05-01T08:21:39.567Z,46.90
2019-05-01T08:24:08.875Z,56.13
2019-05-01T08:26:39.685Z,47.03
2019-05-01T08:29:28.189Z,46.43
2019-05-01T08:32:08.895Z,50.53
2019-05-01T08:34:48.477Z,43.23
2019-05-01T08:37:09.106Z,51.17
2019-05-01T08:39:39.706Z,50.53
2019-05-01T08:42:08.982Z,51.40
2019-05-01T08:44:49.731Z,47.10
2019-05-01T08:47:27.770Z,52.37
2019-05-01T08:50:05.719Z,53.07
2019-05-01T08:52:34.725Z,49.80
2019-05-01T08:55:04.374Z,53.07
2019-05-01T08:57:38.986Z,48.30
2019-05-01T09:00:05.863Z,48.93
2019-05-01T09:02:36.742Z,49.40
2019-05-01T09:05:07.287Z,50.33
2019-05-01T09:07:37.409Z,54.70
2019-05-01T09:10:09.146Z,51.80
2019-05-01T09:12:37.304Z,53.50
2019-05-01T09:15:12.178Z,56.23
2019-05-01T09:17:38.152Z,53.57
2019-05-01T09:20:08.165Z,52.23
2019-05-01T09:22:37.238Z,50.20
2019-05-01T09:25:07.733Z,54.67
2019-05-01T09:27:52.202Z,48.77
2019-05-01T09:30:34.308Z,52.60
2019-05-01T09:33:03.246Z,58.50
2019-05-01T09:35:32.315Z,53.53
2019-05-01T09:38:01.410Z,52.10
2019-05-01T09:40:30.779Z,51.40
2019-05-01T09:43:01.142Z,51.17
2019-05-01T09:45:30.216Z,53.10
2019-05-01T09:47:59.337Z,56.03
2019-05-01T09:50:30.381Z,56.07
2019-05-01T09:53:16.566Z,53.83
2019-05-01T09:55:55.542Z,50.17
2019-05-01T09:58:24.539Z,55.03
2019-05-01T10:00:55.926Z,58.73
2019-05-01T10:03:25.038Z,54.20
2019-05-01T10:05:54.083Z,54.57
2019-05-01T10:08:23.027Z,60.80
2019-05-01T10:10:52.026Z,60.07
2019-05-01T10:13:22.566Z,57.00
2019-05-01T10:15:51.752Z,56.70
2019-05-01T10:18:20.708Z,59.07
2019-05-01T10:20:49.740Z,58.00
2019-05-01T10:23:18.671Z,58.67
2019-05-01T10:25:51.334Z,59.93
2019-05-01T10:28:34.067Z,60.03
2019-05-01T10:31:11.882Z,61.50
2019-05-01T10:33:42.767Z,58.90
2019-05-01T10:36:32.443Z,61.93
2019-05-01T10:39:02.027Z,62.33
2019-05-01T10:41:31.327Z,62.50
2019-05-01T10:44:00.362Z,61.40
2019-05-01T10:46:29.647Z,57.40
2019-05-01T10:48:58.623Z,55.87
2019-05-01T10:51:27.599Z,56.10
2019-05-01T10:53:56.956Z,55.70
2019-05-01T10:56:26.573Z,61.53
2019-05-01T10:58:55.943Z,57.20
2019-05-01T11:01:32.564Z,54.30
2019-05-01T11:04:01.548Z,59.47
2019-05-01T11:06:30.507Z,54.40
2019-05-01T11:08:59.460Z,52.70
2019-05-01T11:11:28.442Z,52.27
2019-05-01T11:13:57.445Z,56.10
2019-05-01T11:16:26.735Z,51.60
2019-05-01T11:18:55.663Z,54.93
2019-05-01T11:21:24.778Z,53.23
2019-05-01T11:23:53.803Z,53.97
2019-05-01T11:26:22.892Z,53.07
2019-05-01T11:28:51.948Z,52.03
2019-05-01T11:31:25.634Z,51.50
2019-05-01T11:34:15.902Z,46.97
2019-05-01T11:37:04.792Z,51.43
2019-05-01T11:39:44.342Z,49.10
2019-05-01T11:42:14.543Z,49.83
2019-05-01T11:44:43.491Z,50.73
2019-05-01T11:47:12.469Z,48.33
2019-05-01T11:49:41.482Z,48.67
2019-05-01T11:52:10.528Z,51.37
2019-05-01T11:54:39.517Z,46.40
2019-05-01T11:57:08.495Z,46.53
2019-05-01T11:59:37.409Z,50.97
2019-05-01T12:02:06.441Z,51.53
2019-05-01T12:04:35.415Z,48.47
2019-05-01T12:07:04.969Z,49.03
2019-05-01T12:09:33.945Z,50.97
2019-05-01T12:12:05.985Z,48.20
2019-05-01T12:14:34.938Z,49.30
2019-05-01T12:17:19.467Z,50.00
2019-05-01T12:19:48.696Z,48.93
2019-05-01T12:22:17.609Z,51.77
2019-05-01T12:24:46.780Z,52.07
2019-05-01T12:27:15.863Z,60.53
2019-05-01T12:29:45.210Z,55.57
2019-05-01T12:32:14.429Z,58.67
2019-05-01T12:34:43.662Z,55.30
2019-05-01T12:37:33.759Z,56.50
2019-05-01T12:40:03.251Z,52.97
2019-05-01T12:42:33.263Z,55.30
2019-05-01T12:45:02.564Z,58.07
2019-05-01T12:47:38.475Z,55.87
2019-05-01T12:50:08.484Z,53.50
2019-05-01T12:52:59.979Z,55.10
2019-05-01T12:55:35.244Z,53.13
2019-05-01T12:58:04.211Z,54.57
2019-05-01T13:00:41.645Z,56.27
2019-05-01T13:03:10.763Z,53.13
2019-05-01T13:05:39.726Z,56.87
2019-05-01T13:08:08.999Z,57.50
2019-05-01T13:10:38.103Z,57.97
2019-05-01T13:13:06.987Z,51.43
2019-05-01T13:15:35.813Z,56.70
2019-05-01T13:18:04.808Z,51.47
2019-05-01T13:20:34.176Z,55.80
2019-05-01T13:23:03.102Z,51.37
2019-05-01T13:25:32.568Z,52.43
2019-05-01T13:28:23.710Z,57.63
2019-05-01T13:31:06.832Z,57.77
2019-05-01T13:33:35.792Z,56.93
2019-05-01T13:36:05.151Z,57.07
2019-05-01T13:38:34.445Z,58.33
2019-05-01T13:41:03.563Z,55.67
2019-05-01T13:43:32.489Z,59.50
2019-05-01T13:46:01.413Z,56.17
2019-05-01T13:48:30.360Z,60.97
2019-05-01T13:50:59.370Z,60.30
2019-05-01T13:53:28.160Z,56.70
2019-05-01T13:55:57.143Z,58.07
2019-05-01T13:58:26.500Z,61.43
2019-05-01T14:00:55.447Z,63.73
2019-05-01T14:03:26.891Z,65.50
2019-05-01T14:05:55.895Z,58.10
2019-05-01T14:08:24.774Z,63.27
2019-05-01T14:10:53.836Z,63.37
2019-05-01T14:13:23.191Z,60.37
2019-05-01T14:15:52.236Z,62.67
2019-05-01T14:18:21.215Z,58.77
2019-05-01T14:21:09.560Z,59.67
2019-05-01T14:23:56.415Z,66.77
2019-05-01T14:26:25.469Z,66.33
2019-05-01T14:28:54.772Z,64.10
2019-05-01T14:31:23.903Z,64.10
2019-05-01T14:33:52.962Z,65.37
2019-05-01T14:36:21.987Z,62.27
2019-05-01T14:38:51.319Z,63.30
2019-05-01T14:41:20.288Z,63.77
2019-05-01T14:43:49.329Z,67.67
2019-05-01T14:46:18.302Z,57.20
2019-05-01T14:48:47.235Z,64.70
2019-05-01T14:51:16.516Z,54.63
2019-05-01T14:53:45.499Z,61.30
2019-05-01T14:56:14.454Z,63.10
2019-05-01T14:58:43.402Z,62.63
2019-05-01T15:01:12.687Z,55.33
2019-05-01T15:03:41.971Z,57.67
2019-05-01T15:06:11.319Z,57.80
2019-05-01T15:08:40.201Z,55.20
2019-05-01T15:11:09.235Z,49.67
2019-05-01T15:13:54.140Z,46.70
2019-05-01T15:16:51.479Z,48.20
2019-05-01T15:19:22.957Z,49.67
2019-05-01T15:21:51.979Z,44.33
2019-05-01T15:24:21.139Z,49.50
2019-05-01T15:26:50.470Z,48.37
2019-05-01T15:29:19.419Z,51.87
2019-05-01T15:31:48.796Z,44.50
2019-05-01T15:34:18.117Z,44.63
2019-05-01T15:36:47.231Z,51.97
2019-05-01T15:39:30.791Z,45.90
2019-05-01T15:42:09.912Z,42.63
2019-05-01T15:44:38.908Z,42.47
2019-05-01T15:47:07.942Z,40.97
2019-05-01T15:49:37.232Z,42.90
2019-05-01T15:52:06.267Z,41.00
2019-05-01T15:54:35.428Z,38.30
2019-05-01T15:57:04.794Z,41.73
2019-05-01T15:59:33.747Z,42.13
2019-05-01T16:02:02.696Z,43.30
2019-05-01T16:04:31.752Z,38.70
2019-05-01T16:07:00.735Z,37.97
2019-05-01T16:09:29.799Z,39.20
2019-05-01T16:12:17.924Z,39.13
2019-05-01T16:14:48.934Z,39.50
2019-05-01T16:17:17.899Z,36.37
2019-05-01T16:19:46.911Z,39.67
2019-05-01T16:22:15.860Z,37.70
2019-05-01T16:24:44.889Z,41.47
2019-05-01T16:27:13.838Z,36.03
2019-05-01T16:29:42.774Z,34.87
2019-05-01T16:32:11.859Z,36.23
2019-05-01T16:34:40.836Z,35.17
2019-05-01T16:37:09.863Z,32.87
2019-05-01T16:39:57.879Z,35.83
2019-05-01T16:42:38.171Z,33.03
2019-05-01T16:45:08.369Z,34.48
2019-05-01T16:47:37.383Z,33.80
2019-05-01T16:50:07.857Z,35.53
2019-05-01T16:52:37.674Z,32.33
2019-05-01T16:55:08.189Z,29.10
2019-05-01T16:57:37.468Z,33.57
2019-05-01T17:00:08.847Z,30.73
2019-05-01T17:02:57.530Z,28.40
2019-05-01T17:05:48.910Z,28.87
2019-05-01T17:08:35.637Z,26.43
2019-05-01T17:10:56.086Z,27.03
2019-05-01T17:13:26.050Z,24.90
2019-05-01T17:15:55.105Z,29.33
2019-05-01T17:18:24.147Z,27.07
2019-05-01T17:20:53.271Z,26.00
2019-05-01T17:23:22.327Z,27.50
2019-05-01T17:25:51.640Z,24.67
2019-05-01T17:28:20.829Z,24.73
2019-05-01T17:30:57.202Z,24.33
2019-05-01T17:33:26.735Z,24.77
2019-05-01T17:35:55.750Z,24.00
2019-05-01T17:38:25.020Z,22.13
2019-05-01T17:40:54.046Z,23.77
2019-05-01T17:43:23.005Z,21.63
2019-05-01T17:45:52.030Z,22.03
2019-05-01T17:48:21.101Z,24.13
2019-05-01T17:50:50.019Z,24.30
2019-05-01T17:53:19.066Z,21.80
2019-05-01T17:55:48.065Z,21.37
2019-05-01T17:58:17.157Z,19.93
2019-05-01T18:01:17.199Z,22.93
2019-05-01T18:03:53.360Z,21.73
2019-05-01T18:06:25.718Z,21.50
2019-05-01T18:09:02.819Z,23.23
2019-05-01T18:11:25.464Z,23.37
2019-05-01T18:13:54.490Z,23.33
2019-05-01T18:16:23.578Z,24.07
2019-05-01T18:18:52.484Z,24.90
2019-05-01T18:21:21.825Z,23.70
2019-05-01T18:24:08.945Z,22.90
2019-05-01T18:26:49.608Z,19.07
2019-05-01T18:29:26.903Z,21.77
2019-05-01T18:31:56.149Z,25.80
2019-05-01T18:34:25.167Z,23.57
2019-05-01T18:37:07.355Z,23.23
2019-05-01T18:39:38.243Z,22.23
2019-05-01T18:42:10.557Z,23.10
2019-05-01T18:44:42.629Z,23.50
2019-05-01T18:47:10.177Z,25.97
2019-05-01T18:49:39.011Z,23.70
2019-05-01T18:52:08.925Z,24.33
2019-05-01T18:54:38.123Z,24.23
2019-05-01T18:57:07.804Z,25.43
2019-05-01T18:59:36.800Z,26.90
2019-05-01T19:02:05.936Z,23.27
2019-05-01T19:04:34.991Z,20.03
2019-05-01T19:07:05.079Z,22.37
2019-05-01T19:09:36.683Z,24.53
2019-05-01T19:12:07.475Z,23.70
2019-05-01T19:14:36.559Z,23.10
2019-05-01T19:17:05.620Z,24.10
2019-05-01T19:19:34.712Z,27.43
2019-05-01T19:22:04.600Z,21.83
2019-05-01T19:24:37.890Z,20.97
2019-05-01T19:27:04.764Z,23.73
2019-05-01T19:29:33.952Z,21.97
2019-05-01T19:32:03.219Z,24.03
2019-05-01T19:34:32.193Z,24.37
2019-05-01T19:37:01.312Z,25.67
2019-05-01T19:39:42.686Z,26.43
2019-05-01T19:42:01.144Z,26.33
2019-05-01T19:44:30.407Z,27.57
2019-05-01T19:46:59.512Z,28.57
2019-05-01T19:49:29.459Z,30.17
2019-05-01T19:52:00.627Z,34.03
2019-05-01T19:54:31.106Z,30.50
2019-05-01T19:57:00.475Z,35.10
2019-05-01T19:59:29.865Z,34.67
2019-05-01T20:01:58.702Z,29.73
2019-05-01T20:04:27.842Z,31.10
2019-05-01T20:06:57.053Z,28.37
2019-05-01T20:09:27.004Z,28.20
2019-05-01T20:11:55.901Z,28.13
2019-05-01T20:14:24.869Z,27.63
2019-05-01T20:16:53.875Z,28.40
2019-05-01T20:19:22.965Z,26.07
2019-05-01T20:21:51.978Z,29.03
2019-05-01T20:24:21.028Z,27.83
2019-05-01T20:26:49.949Z,25.93
2019-05-01T20:29:18.953Z,27.30
2019-05-01T20:31:50.816Z,27.33
2019-05-01T20:34:19.315Z,25.37
2019-05-01T20:36:48.545Z,27.00
2019-05-01T20:39:17.608Z,30.20
2019-05-01T20:41:46.579Z,29.07
2019-05-01T20:44:23.192Z,27.33
2019-05-01T20:46:46.540Z,30.00
2019-05-01T20:49:15.534Z,28.27
2019-05-01T20:51:44.329Z,26.40
2019-05-01T20:54:13.267Z,28.27
2019-05-01T20:56:48.255Z,27.53
2019-05-01T20:59:17.566Z,27.03
2019-05-01T21:01:46.439Z,25.87
2019-05-01T21:04:43.462Z,23.33
2019-05-01T21:07:37.300Z,25.80
2019-05-01T21:10:08.088Z,26.67
2019-05-01T21:12:36.913Z,26.97
2019-05-01T21:15:06.095Z,24.67
2019-05-01T21:17:35.017Z,26.87
2019-05-01T21:20:04.606Z,25.03
2019-05-01T21:22:33.823Z,25.37
2019-05-01T21:25:04.613Z,27.63
2019-05-01T21:27:33.788Z,25.77
2019-05-01T21:30:03.836Z,26.23
2019-05-01T21:32:33.942Z,26.47
2019-05-01T21:35:04.823Z,25.33
2019-05-01T21:37:33.985Z,23.90
2019-05-01T21:40:02.887Z,27.97
2019-05-01T21:42:32.640Z,25.23
2019-05-01T21:45:04.187Z,27.47
2019-05-01T21:47:33.491Z,28.73
2019-05-01T21:50:03.195Z,25.70
2019-05-01T21:52:33.300Z,25.87
2019-05-01T21:55:02.262Z,26.83
2019-05-01T21:57:33.151Z,27.53
2019-05-01T22:00:02.273Z,26.67
2019-05-01T22:02:31.305Z,24.13
2019-05-01T22:05:03.729Z,25.57
2019-05-01T22:07:31.322Z,28.37
2019-05-01T22:10:00.417Z,28.67
2019-05-01T22:12:29.400Z,28.63
2019-05-01T22:15:01.617Z,26.10
2019-05-01T22:17:48.338Z,27.80
2019-05-01T22:20:20.019Z,24.47
2019-05-01T22:22:54.047Z,26.03
2019-05-01T22:25:27.214Z,27.03
2019-05-01T22:28:02.486Z,26.57
2019-05-01T22:30:36.207Z,26.57
2019-05-01T22:33:05.606Z,25.23
2019-05-01T22:35:38.243Z,23.37
2019-05-01T22:38:08.281Z,25.17
2019-05-01T22:41:06.766Z,24.40
2019-05-01T22:43:31.263Z,24.47
2019-05-01T22:46:01.714Z,22.17
2019-05-01T22:48:31.311Z,23.83
2019-05-01T22:51:05.741Z,26.87
2019-05-01T22:53:34.764Z,26.17
2019-05-01T22:56:04.153Z,23.67
2019-05-01T22:58:33.262Z,25.80
2019-05-01T23:01:02.220Z,29.83
2019-05-01T23:03:40.548Z,28.90
2019-05-01T23:06:07.928Z,33.15
2019-05-01T23:08:37.468Z,32.80
2019-05-01T23:11:19.075Z,30.40
2019-05-01T23:13:37.491Z,30.50
2019-05-01T23:16:07.594Z,29.83
2019-05-01T23:18:36.875Z,32.37
2019-05-01T23:21:09.730Z,33.30
2019-05-01T23:23:36.542Z,33.93
2019-05-01T23:26:05.594Z,33.93
2019-05-01T23:28:39.359Z,33.08
2019-05-01T23:31:05.777Z,31.40
2019-05-01T23:33:35.144Z,30.30
2019-05-01T23:36:04.559Z,35.47
2019-05-01T23:38:33.655Z,32.83
2019-05-01T23:41:02.867Z,32.83
2019-05-01T23:43:31.863Z,32.93
2019-05-01T23:46:01.461Z,34.83
2019-05-01T23:48:30.815Z,31.62
2019-05-01T23:51:00.099Z,32.17
2019-05-01T23:53:28.986Z,32.40
2019-05-01T23:56:00.194Z,29.40
2019-05-01T23:58:28.595Z,32.08
